Time;durP1;ratioP1;P1;durP2;ratioP2;P2;SDS_P1;SDS_P2;PMS_P1;PMS_P2;Temp;Humidity;BMP_temperature;BMP_pressure;BME280_temperature;BME280_humidity;BME280_pressure;Samples;Min_cycle;Max_cycle;Signal;HPM_P1;HPM_P2
2023/04/20 00:00:23;;;;;;;2.87;1.60;;;6.60;99.90;;;;;;4994413;28;20479;-84
2023/04/20 00:02:50;;;;;;;2.17;1.70;;;6.70;99.90;;;;;;5002863;28;20511;-83
2023/04/20 00:05:17;;;;;;;1.80;1.60;;;6.70;99.90;;;;;;4998696;28;20487;-84
2023/04/20 00:07:47;;;;;;;2.10;1.60;;;6.70;99.90;;;;;;4993247;28;20492;-84
2023/04/20 00:10:14;;;;;;;2.10;1.30;;;6.60;99.90;;;;;;4993092;28;20472;-84
2023/04/20 00:12:42;;;;;;;2.03;1.60;;;6.70;99.90;;;;;;4992579;28;20479;-84
2023/04/20 00:15:09;;;;;;;1.63;1.37;;;6.30;99.90;;;;;;4993282;28;20495;-84
2023/04/20 00:17:38;;;;;;;2.23;2.00;;;5.90;99.90;;;;;;4992968;28;20476;-84
2023/04/20 00:20:06;;;;;;;2.43;2.03;;;5.90;99.90;;;;;;4993359;28;20823;-84
2023/04/20 00:22:34;;;;;;;1.47;1.37;;;5.90;99.90;;;;;;4995337;28;20445;-84
2023/04/20 00:25:03;;;;;;;1.90;1.50;;;5.90;99.90;;;;;;4996319;28;20464;-84
2023/04/20 00:27:29;;;;;;;2.13;1.93;;;6.10;99.90;;;;;;4994969;28;20893;-83
2023/04/20 00:29:56;;;;;;;2.40;1.70;;;6.10;99.90;;;;;;4997348;28;20862;-84
2023/04/20 00:32:23;;;;;;;2.40;1.90;;;6.20;99.90;;;;;;4997753;28;20559;-84
2023/04/20 00:34:50;;;;;;;2.27;2.03;;;6.30;99.90;;;;;;4998132;28;20456;-84
2023/04/20 00:37:17;;;;;;;2.70;2.10;;;6.40;99.90;;;;;;4998302;28;20873;-84
2023/04/20 00:39:44;;;;;;;2.73;2.40;;;6.40;99.90;;;;;;4997659;28;20472;-84
2023/04/20 00:42:12;;;;;;;2.43;1.90;;;6.40;99.90;;;;;;4997835;28;20495;-85
2023/04/20 00:44:39;;;;;;;1.97;1.47;;;6.50;99.90;;;;;;4997569;28;21001;-84
2023/04/20 00:47:06;;;;;;;1.83;1.73;;;6.40;99.90;;;;;;4998389;28;20480;-84
2023/04/20 00:49:33;;;;;;;2.70;1.63;;;6.10;99.90;;;;;;4997668;28;20530;-85
2023/04/20 00:52:01;;;;;;;1.90;1.60;;;6.00;99.90;;;;;;4997209;28;20468;-84
2023/04/20 00:54:29;;;;;;;2.87;2.20;;;6.00;99.90;;;;;;4996766;28;20941;-84
2023/04/20 00:56:57;;;;;;;2.70;1.80;;;6.00;99.90;;;;;;4996920;28;20479;-84
2023/04/20 00:59:26;;;;;;;2.37;1.90;;;5.80;99.90;;;;;;4997429;28;20508;-84
2023/04/20 01:01:53;;;;;;;2.60;1.87;;;5.90;99.90;;;;;;4997026;28;20532;-84
2023/04/20 01:04:20;;;;;;;1.80;1.40;;;6.00;99.90;;;;;;4997144;28;20498;-84
2023/04/20 01:06:47;;;;;;;2.20;1.60;;;5.90;99.90;;;;;;4997358;28;20524;-84
2023/04/20 01:09:14;;;;;;;2.33;1.77;;;6.10;99.90;;;;;;4996902;28;20492;-83
2023/04/20 01:11:41;;;;;;;2.10;1.90;;;6.10;99.90;;;;;;4996700;28;20895;-84
2023/04/20 01:14:08;;;;;;;2.63;2.00;;;6.10;99.90;;;;;;4996195;28;20444;-84
2023/04/20 01:16:36;;;;;;;2.53;2.00;;;6.10;99.90;;;;;;4997344;28;20485;-84
2023/04/20 01:19:03;;;;;;;3.43;2.20;;;6.00;99.90;;;;;;4996917;28;20507;-85
2023/04/20 01:21:30;;;;;;;2.00;1.73;;;6.00;99.90;;;;;;4996422;28;20464;-84
2023/04/20 01:23:59;;;;;;;2.90;2.60;;;5.90;99.90;;;;;;4996827;28;20452;-84
2023/04/20 01:26:26;;;;;;;2.97;2.10;;;5.80;99.90;;;;;;4996614;28;20531;-84
2023/04/20 01:28:53;;;;;;;3.00;2.13;;;6.00;99.90;;;;;;4996573;28;20476;-84
2023/04/20 01:31:20;;;;;;;2.27;2.07;;;5.80;99.90;;;;;;4996754;28;21047;-84
2023/04/20 01:33:47;;;;;;;2.27;1.90;;;5.80;99.90;;;;;;4996720;28;20732;-85
2023/04/20 01:36:15;;;;;;;2.30;2.10;;;5.90;99.90;;;;;;4996359;28;20886;-86
2023/04/20 01:38:41;;;;;;;2.37;1.97;;;5.90;99.90;;;;;;4996074;28;20468;-85
2023/04/20 01:41:10;;;;;;;2.33;2.10;;;5.70;99.90;;;;;;4999719;28;20508;-87
2023/04/20 01:43:38;;;;;;;3.70;2.23;;;5.60;99.90;;;;;;5004007;28;20878;-84
2023/04/20 01:46:05;;;;;;;2.30;1.83;;;5.40;99.90;;;;;;4997079;28;20996;-84
2023/04/20 01:48:32;;;;;;;2.23;1.97;;;5.20;99.90;;;;;;4995184;28;20865;-84
2023/04/20 01:50:59;;;;;;;2.33;1.97;;;5.30;99.90;;;;;;4995483;28;20483;-84
2023/04/20 01:53:26;;;;;;;2.40;2.07;;;5.40;99.90;;;;;;4995042;28;20444;-84
2023/04/20 01:55:53;;;;;;;2.43;1.93;;;5.50;99.90;;;;;;4995501;28;20546;-84
2023/04/20 01:58:22;;;;;;;2.30;2.10;;;5.70;99.90;;;;;;5000221;28;20479;-88
2023/04/20 02:00:49;;;;;;;2.33;1.80;;;5.80;99.90;;;;;;5008183;28;20444;-84
2023/04/20 02:03:16;;;;;;;2.60;2.10;;;5.80;99.90;;;;;;4994879;28;20532;-84
2023/04/20 02:05:43;;;;;;;2.40;2.03;;;5.80;99.90;;;;;;4994812;28;20779;-84
2023/04/20 02:08:10;;;;;;;2.37;1.80;;;5.30;99.90;;;;;;4994214;28;20514;-84
2023/04/20 02:10:37;;;;;;;3.17;2.07;;;5.30;99.90;;;;;;4994769;28;20456;-84
2023/04/20 02:13:04;;;;;;;3.60;2.33;;;5.10;99.90;;;;;;4994309;28;21079;-84
2023/04/20 02:15:32;;;;;;;2.60;2.40;;;5.20;99.90;;;;;;4994866;28;20474;-84
2023/04/20 02:17:59;;;;;;;2.57;2.30;;;5.10;99.90;;;;;;4994628;28;20496;-83
2023/04/20 02:20:26;;;;;;;2.47;2.20;;;5.10;99.90;;;;;;4994441;28;20956;-84
2023/04/20 02:22:53;;;;;;;2.60;2.40;;;5.10;99.90;;;;;;4994751;28;20448;-84
2023/04/20 02:25:20;;;;;;;3.63;2.70;;;5.30;99.90;;;;;;4994488;28;20539;-84
2023/04/20 02:27:47;;;;;;;2.53;1.97;;;5.40;99.90;;;;;;4994331;28;20459;-84
2023/04/20 02:30:14;;;;;;;2.20;1.90;;;5.70;99.90;;;;;;4994759;28;20460;-85
2023/04/20 02:32:43;;;;;;;3.77;2.17;;;5.80;99.90;;;;;;4994506;28;20471;-84
2023/04/20 02:35:10;;;;;;;3.37;2.60;;;5.80;99.90;;;;;;4994819;28;20848;-84
2023/04/20 02:37:37;;;;;;;2.60;2.37;;;5.80;99.90;;;;;;4994913;28;20523;-84
2023/04/20 02:40:05;;;;;;;3.67;3.37;;;5.90;99.90;;;;;;5028520;23;20576;-53
2023/04/20 02:42:32;;;;;;;3.10;2.60;;;5.70;99.90;;;;;;5051617;28;20444;-54
2023/04/20 02:44:59;;;;;;;2.40;2.20;;;5.40;99.90;;;;;;5051674;28;20493;-54
2023/04/20 02:47:26;;;;;;;1.97;1.77;;;5.60;99.90;;;;;;5050805;28;20528;-54
2023/04/20 02:49:54;;;;;;;3.27;2.60;;;5.60;99.90;;;;;;5059827;28;20462;-56
2023/04/20 02:52:21;;;;;;;2.90;2.10;;;5.60;99.90;;;;;;5061925;23;21099;-54
2023/04/20 02:54:48;;;;;;;4.33;2.47;;;5.40;99.90;;;;;;5030819;28;20543;-54
2023/04/20 02:57:15;;;;;;;2.57;2.37;;;5.60;99.90;;;;;;5030255;28;20543;-54
2023/04/20 02:59:42;;;;;;;3.20;2.60;;;5.80;99.90;;;;;;5031289;28;20493;-54
2023/04/20 03:02:09;;;;;;;3.03;2.40;;;5.70;99.90;;;;;;5031350;28;20546;-56
2023/04/20 03:04:36;;;;;;;3.37;3.10;;;6.00;99.90;;;;;;5031839;28;20435;-54
2023/04/20 03:07:05;;;;;;;3.00;2.70;;;6.10;99.90;;;;;;5031923;28;20446;-55
2023/04/20 03:09:31;;;;;;;2.63;2.20;;;6.10;99.90;;;;;;5029614;28;20489;-55
2023/04/20 03:11:58;;;;;;;6.23;2.60;;;6.10;99.90;;;;;;5011134;28;20574;-54
2023/04/20 03:14:25;;;;;;;3.00;2.70;;;6.00;99.90;;;;;;5011624;28;20820;-54
2023/04/20 03:16:52;;;;;;;2.77;2.57;;;6.00;99.90;;;;;;5011373;28;20509;-54
2023/04/20 03:19:19;;;;;;;2.80;2.50;;;6.00;99.90;;;;;;5011538;28;20537;-54
2023/04/20 03:21:46;;;;;;;3.57;3.27;;;6.00;99.90;;;;;;5011466;28;20459;-53
2023/04/20 03:24:15;;;;;;;2.77;2.30;;;5.90;99.90;;;;;;5011233;28;20502;-54
2023/04/20 03:26:42;;;;;;;2.60;2.40;;;6.00;99.90;;;;;;5011084;28;20451;-54
2023/04/20 03:29:09;;;;;;;2.93;2.70;;;6.00;99.90;;;;;;5011815;28;20497;-54
2023/04/20 03:31:35;;;;;;;3.20;2.70;;;6.10;99.90;;;;;;5011091;28;20852;-53
2023/04/20 03:34:02;;;;;;;2.93;2.70;;;6.00;99.90;;;;;;5011533;28;20538;-55
2023/04/20 03:36:30;;;;;;;3.00;2.40;;;5.90;99.90;;;;;;5011063;28;20523;-53
2023/04/20 03:38:57;;;;;;;3.17;2.33;;;6.10;99.90;;;;;;5010992;28;20988;-54
2023/04/20 03:41:25;;;;;;;3.40;2.43;;;6.00;99.90;;;;;;5011400;28;21041;-54
2023/04/20 03:43:52;;;;;;;2.30;2.10;;;6.10;99.90;;;;;;5011343;28;20463;-54
2023/04/20 03:46:19;;;;;;;2.83;2.53;;;6.00;99.90;;;;;;5011129;28;20527;-54
2023/04/20 03:48:46;;;;;;;2.70;2.50;;;6.00;99.90;;;;;;5023042;28;20474;-54
2023/04/20 03:51:13;;;;;;;2.60;2.40;;;6.00;99.90;;;;;;5029412;28;20890;-54
2023/04/20 03:53:40;;;;;;;3.60;2.77;;;6.00;99.90;;;;;;5011058;28;20577;-54
2023/04/20 03:56:07;;;;;;;2.60;2.40;;;5.90;99.90;;;;;;5010736;28;20967;-54
2023/04/20 03:58:36;;;;;;;5.30;2.90;;;5.40;99.90;;;;;;5010916;28;20448;-54
2023/04/20 04:01:05;;;;;;;3.30;3.00;;;5.00;99.90;;;;;;5023573;28;20528;-54
2023/04/20 04:03:33;;;;;;;4.20;3.50;;;5.00;99.90;;;;;;5030804;28;20525;-54
2023/04/20 04:06:00;;;;;;;3.80;3.50;;;4.90;99.90;;;;;;5034831;28;20866;-54
2023/04/20 04:08:27;;;;;;;3.50;3.07;;;4.80;99.90;;;;;;5029916;28;20537;-54
2023/04/20 04:10:53;;;;;;;3.83;3.43;;;4.80;99.90;;;;;;5023412;28;20530;-54
2023/04/20 04:13:20;;;;;;;3.73;3.00;;;4.90;99.90;;;;;;5026218;28;20564;-55
2023/04/20 04:15:49;;;;;;;3.57;3.27;;;4.70;99.90;;;;;;5027350;28;20931;-54
2023/04/20 04:18:16;;;;;;;3.67;3.13;;;4.90;99.90;;;;;;5028686;28;20525;-54
2023/04/20 04:20:42;;;;;;;3.87;2.83;;;4.70;99.90;;;;;;5025021;28;20549;-55
2023/04/20 04:23:10;;;;;;;3.13;2.83;;;4.80;99.90;;;;;;5014517;28;20498;-54
2023/04/20 04:25:39;;;;;;;3.37;3.07;;;4.90;99.90;;;;;;5017965;28;21036;-54
2023/04/20 04:28:06;;;;;;;4.37;3.20;;;4.70;99.90;;;;;;5031149;28;20452;-54
2023/04/20 04:30:33;;;;;;;3.33;2.40;;;4.70;99.90;;;;;;5029374;28;20445;-54
2023/04/20 04:33:03;;;;;;;3.47;3.10;;;4.60;99.90;;;;;;5030180;28;20521;-54
2023/04/20 04:35:30;;;;;;;4.17;3.13;;;4.80;99.90;;;;;;5020137;28;20469;-54
2023/04/20 04:37:57;;;;;;;3.43;3.13;;;5.00;99.90;;;;;;5014136;28;20941;-54
2023/04/20 04:40:24;;;;;;;3.73;3.33;;;5.30;99.90;;;;;;5019627;28;20519;-54
2023/04/20 04:42:51;;;;;;;4.20;3.30;;;5.40;99.90;;;;;;5025057;28;21063;-53
2023/04/20 04:45:18;;;;;;;4.63;3.77;;;5.40;99.90;;;;;;5022261;28;20447;-54
2023/04/20 04:47:45;;;;;;;4.60;2.60;;;5.30;99.90;;;;;;5026584;28;20875;-53
2023/04/20 04:50:13;;;;;;;4.53;2.90;;;5.40;99.90;;;;;;5015657;28;21025;-54
2023/04/20 04:52:40;;;;;;;3.90;2.83;;;5.20;99.90;;;;;;5015401;28;20540;-54
2023/04/20 04:55:08;;;;;;;3.37;3.07;;;5.30;99.90;;;;;;5020240;28;20483;-54
2023/04/20 04:57:37;;;;;;;3.30;3.00;;;5.20;99.90;;;;;;5017099;28;20495;-54
2023/04/20 05:00:06;;;;;;;3.87;3.17;;;5.10;99.90;;;;;;5013345;28;20458;-54
2023/04/20 05:02:33;;;;;;;4.00;3.00;;;5.30;99.90;;;;;;5030073;28;20558;-54
2023/04/20 05:05:00;;;;;;;3.30;3.00;;;5.50;99.90;;;;;;5031750;28;20855;-54
2023/04/20 05:07:29;;;;;;;5.80;4.60;;;5.60;99.90;;;;;;5028326;28;20898;-55
2023/04/20 05:09:56;;;;;;;4.80;3.87;;;5.70;99.90;;;;;;5028998;28;20442;-54
2023/04/20 05:12:24;;;;;;;3.53;3.20;;;5.70;99.90;;;;;;5024797;28;20548;-54
2023/04/20 05:14:51;;;;;;;4.00;3.60;;;5.70;99.90;;;;;;5032749;28;20438;-55
2023/04/20 05:17:18;;;;;;;5.40;4.23;;;5.20;99.90;;;;;;5031519;28;20577;-54
2023/04/20 05:19:45;;;;;;;4.87;4.20;;;5.10;99.90;;;;;;5028246;28;20485;-54
2023/04/20 05:22:12;;;;;;;5.63;5.03;;;4.80;99.90;;;;;;5019754;28;20551;-54
2023/04/20 05:24:41;;;;;;;6.30;4.50;;;5.10;99.90;;;;;;5023851;28;20821;-54
2023/04/20 05:27:08;;;;;;;7.73;7.20;;;5.30;99.90;;;;;;5025647;28;21036;-55
2023/04/20 05:29:35;;;;;;;6.60;5.10;;;5.40;99.90;;;;;;5030825;28;20873;-54
2023/04/20 05:32:02;;;;;;;8.17;4.77;;;5.40;99.90;;;;;;5032517;28;20716;-53
2023/04/20 05:34:28;;;;;;;6.70;5.07;;;5.40;99.90;;;;;;5032434;28;20536;-54
2023/04/20 05:36:55;;;;;;;5.97;5.47;;;5.40;99.90;;;;;;5031285;28;21047;-54
2023/04/20 05:39:22;;;;;;;8.00;5.50;;;5.30;99.90;;;;;;5033016;28;20442;-54
2023/04/20 05:41:51;;;;;;;5.70;5.00;;;5.30;99.90;;;;;;5032489;28;20501;-54
2023/04/20 05:44:18;;;;;;;6.30;5.67;;;5.30;99.90;;;;;;5032497;28;20480;-54
2023/04/20 05:46:44;;;;;;;6.10;5.50;;;5.30;99.90;;;;;;5032134;28;20479;-56
2023/04/20 05:49:11;;;;;;;8.40;7.53;;;5.40;99.90;;;;;;5029968;28;20517;-54
2023/04/20 05:51:38;;;;;;;7.50;5.97;;;5.40;99.90;;;;;;5032072;28;20516;-54
2023/04/20 05:54:05;;;;;;;6.37;5.77;;;5.40;99.90;;;;;;5032450;28;20948;-55
2023/04/20 05:56:32;;;;;;;6.60;6.00;;;5.30;99.90;;;;;;5029857;28;20526;-54
2023/04/20 05:59:01;;;;;;;7.20;6.47;;;5.40;99.90;;;;;;5031565;28;20475;-55
2023/04/20 06:01:28;;;;;;;6.53;5.93;;;5.50;99.90;;;;;;5032572;28;20544;-54
2023/04/20 06:03:55;;;;;;;5.97;5.37;;;5.50;99.90;;;;;;5032406;28;20485;-55
2023/04/20 06:06:21;;;;;;;6.40;5.80;;;5.50;99.90;;;;;;5032410;28;20958;-53
2023/04/20 06:08:49;;;;;;;7.47;6.10;;;5.40;99.90;;;;;;5032014;28;20524;-54
2023/04/20 06:11:16;;;;;;;6.80;6.20;;;5.50;99.90;;;;;;5028301;28;20459;-54
2023/04/20 06:13:43;;;;;;;6.13;5.13;;;5.50;99.90;;;;;;5030513;28;20573;-54
2023/04/20 06:16:11;;;;;;;7.80;5.77;;;5.40;99.90;;;;;;5030575;28;20473;-54
2023/04/20 06:18:38;;;;;;;7.80;5.37;;;5.40;99.90;;;;;;5030414;28;20443;-53
2023/04/20 06:21:05;;;;;;;8.17;5.70;;;5.40;99.90;;;;;;5030230;28;20462;-54
2023/04/20 06:23:32;;;;;;;7.13;6.43;;;5.30;99.90;;;;;;5029924;28;20516;-54
2023/04/20 06:25:59;;;;;;;5.97;5.37;;;5.50;99.90;;;;;;5031186;28;20522;-54
2023/04/20 06:28:26;;;;;;;5.60;4.97;;;5.70;99.90;;;;;;5031551;28;21002;-54
2023/04/20 06:30:53;;;;;;;4.80;4.17;;;5.80;99.90;;;;;;5031412;28;20497;-54
2023/04/20 06:33:21;;;;;;;6.30;4.40;;;5.90;99.90;;;;;;5028130;28;20510;-54
2023/04/20 06:35:50;;;;;;;4.37;3.97;;;5.90;99.90;;;;;;5030758;28;20526;-54
2023/04/20 06:38:17;;;;;;;5.90;5.30;;;6.00;99.90;;;;;;5030541;28;20567;-55
2023/04/20 06:40:44;;;;;;;5.20;4.50;;;6.10;99.90;;;;;;5031332;28;20451;-54
2023/04/20 06:43:11;;;;;;;4.27;3.87;;;6.10;99.90;;;;;;5030956;28;20495;-54
2023/04/20 06:45:39;;;;;;;5.97;5.30;;;6.10;99.90;;;;;;5029312;28;20458;-54
2023/04/20 06:48:07;;;;;;;6.17;5.57;;;6.10;99.90;;;;;;5031503;28;20581;-54
2023/04/20 06:50:36;;;;;;;5.53;5.00;;;6.20;99.90;;;;;;5030076;28;20450;-54
2023/04/20 06:53:04;;;;;;;6.70;6.10;;;6.20;99.90;;;;;;5029645;28;20486;-55
2023/04/20 06:55:32;;;;;;;6.30;5.70;;;6.20;99.90;;;;;;5030524;28;20439;-54
2023/04/20 06:57:59;;;;;;;6.10;5.40;;;6.20;99.90;;;;;;5029470;28;20447;-54
2023/04/20 07:00:27;;;;;;;5.77;5.17;;;6.20;99.90;;;;;;5029774;28;20796;-54
2023/04/20 07:02:54;;;;;;;12.07;8.90;;;6.20;99.90;;;;;;5029852;28;20494;-55
2023/04/20 07:05:22;;;;;;;7.00;6.30;;;6.00;99.90;;;;;;5030245;28;20449;-54
2023/04/20 07:07:51;;;;;;;6.73;5.60;;;5.90;99.90;;;;;;5030224;28;20866;-53
2023/04/20 07:10:19;;;;;;;5.17;4.67;;;6.00;99.90;;;;;;5030104;28;20537;-54
2023/04/20 07:12:47;;;;;;;4.63;4.23;;;6.10;99.90;;;;;;5028697;28;20474;-54
2023/04/20 07:15:14;;;;;;;5.80;5.20;;;6.10;99.90;;;;;;5030256;28;20469;-54
2023/04/20 07:17:42;;;;;;;6.20;4.33;;;6.20;99.90;;;;;;5029677;28;20855;-54
2023/04/20 07:20:10;;;;;;;5.60;3.30;;;6.40;99.90;;;;;;5030725;28;20817;-54
2023/04/20 07:22:38;;;;;;;3.40;3.10;;;6.40;99.90;;;;;;5020326;28;20487;-54
2023/04/20 07:25:08;;;;;;;3.73;3.20;;;6.50;99.90;;;;;;5021036;28;20449;-55
2023/04/20 07:27:37;;;;;;;4.53;3.30;;;6.50;99.90;;;;;;5027788;28;20455;-54
2023/04/20 07:30:07;;;;;;;3.60;2.40;;;6.60;99.90;;;;;;5027396;28;20443;-54
2023/04/20 07:32:35;;;;;;;3.07;2.40;;;6.60;99.90;;;;;;5027283;28;20470;-54
2023/04/20 07:35:02;;;;;;;2.93;2.43;;;6.60;99.90;;;;;;5027628;28;20482;-54
2023/04/20 07:37:31;;;;;;;2.97;2.67;;;6.70;99.90;;;;;;5023522;28;20950;-54
2023/04/20 07:39:58;;;;;;;3.30;2.80;;;6.80;99.90;;;;;;5006899;28;20892;-54
2023/04/20 07:42:27;;;;;;;3.17;2.53;;;6.90;99.90;;;;;;5008199;28;20550;-54
2023/04/20 07:44:55;;;;;;;2.13;1.93;;;6.90;99.90;;;;;;5009048;28;20443;-55
2023/04/20 07:47:22;;;;;;;2.30;2.10;;;7.00;99.90;;;;;;5020695;28;20890;-56
2023/04/20 07:49:49;;;;;;;2.30;1.50;;;7.10;99.90;;;;;;5008337;28;20538;-54
2023/04/20 07:52:17;;;;;;;3.60;2.00;;;7.10;99.90;;;;;;5011560;28;20509;-54
2023/04/20 07:54:44;;;;;;;3.57;2.00;;;7.20;99.90;;;;;;5027293;28;21226;-54
2023/04/20 07:57:10;;;;;;;2.57;1.63;;;7.30;99.90;;;;;;5027513;28;20533;-55
2023/04/20 07:59:39;;;;;;;1.90;1.60;;;7.30;99.90;;;;;;5026882;28;20543;-54
2023/04/20 08:02:06;;;;;;;2.17;1.97;;;7.40;99.90;;;;;;5027526;28;20466;-54
2023/04/20 08:04:33;;;;;;;2.30;1.87;;;7.40;99.90;;;;;;5027664;28;20533;-55
2023/04/20 08:07:00;;;;;;;1.80;1.60;;;7.10;99.90;;;;;;5026679;28;20450;-54
2023/04/20 08:09:28;;;;;;;1.30;1.20;;;7.20;99.90;;;;;;5026461;28;20450;-54
2023/04/20 08:11:55;;;;;;;1.60;1.50;;;7.40;99.90;;;;;;5025525;28;20471;-55
2023/04/20 08:14:22;;;;;;;2.90;2.33;;;7.40;99.90;;;;;;5025995;28;20561;-54
2023/04/20 08:16:50;;;;;;;2.10;1.63;;;7.50;99.90;;;;;;5026392;28;20477;-55
2023/04/20 08:19:17;;;;;;;1.30;1.10;;;7.60;99.90;;;;;;5024344;28;20537;-54
2023/04/20 08:21:44;;;;;;;2.20;1.60;;;7.40;99.90;;;;;;5025937;28;20993;-54
2023/04/20 08:24:12;;;;;;;1.63;1.33;;;7.40;99.90;;;;;;5026514;28;20588;-54
2023/04/20 08:26:40;;;;;;;1.40;1.00;;;7.40;99.90;;;;;;5027026;28;20450;-54
2023/04/20 08:29:07;;;;;;;1.17;1.00;;;7.60;99.90;;;;;;5026605;28;20458;-54
2023/04/20 08:31:34;;;;;;;1.10;0.97;;;7.30;99.90;;;;;;5026468;28;20458;-54
2023/04/20 08:34:03;;;;;;;1.50;1.23;;;7.40;99.90;;;;;;5027276;28;20573;-54
2023/04/20 08:36:31;;;;;;;1.43;0.93;;;7.60;99.90;;;;;;5026037;28;20434;-54
2023/04/20 08:39:06;;;;;;;1.80;1.23;;;7.70;99.90;;;;;;5026254;28;20803;-55
2023/04/20 08:41:34;;;;;;;1.43;1.23;;;7.90;99.90;;;;;;5026831;28;20460;-54
2023/04/20 08:44:02;;;;;;;1.20;0.93;;;8.10;99.90;;;;;;5023272;28;20443;-54
2023/04/20 08:46:29;;;;;;;2.03;1.40;;;8.20;99.90;;;;;;5026234;28;20484;-54
2023/04/20 08:48:57;;;;;;;1.70;1.10;;;8.30;99.90;;;;;;5026958;28;20435;-54
2023/04/20 08:51:26;;;;;;;1.60;1.40;;;8.40;99.90;;;;;;5054518;23;20553;-85
2023/04/20 08:53:55;;;;;;;2.30;1.50;;;8.40;99.90;;;;;;5029717;28;20561;-85
2023/04/20 08:56:35;;;;;;;1.43;1.30;;;8.30;99.90;;;;;;5027931;28;20529;-85
2023/04/20 08:59:04;;;;;;;2.63;1.10;;;8.40;99.90;;;;;;5027516;28;20886;-85
2023/04/20 09:01:34;;;;;;;1.37;1.27;;;8.50;99.90;;;;;;5030404;28;20508;-84
2023/04/20 09:04:01;;;;;;;1.10;0.80;;;8.60;99.90;;;;;;5030546;28;20442;-85
2023/04/20 09:06:31;;;;;;;1.10;0.70;;;8.60;99.90;;;;;;5030052;28;20534;-85
2023/04/20 09:08:58;;;;;;;1.47;1.00;;;8.50;99.90;;;;;;5029991;28;20470;-85
2023/04/20 09:11:27;;;;;;;1.57;1.13;;;8.60;99.90;;;;;;5030086;28;20526;-85
2023/04/20 09:14:01;;;;;;;1.20;1.00;;;8.80;99.90;;;;;;5029444;28;20506;-85
2023/04/20 09:16:29;;;;;;;2.20;0.90;;;8.80;99.90;;;;;;5028241;28;20445;-85
2023/04/20 09:18:57;;;;;;;1.67;0.90;;;8.90;99.90;;;;;;5029478;28;20462;-85
2023/04/20 09:21:26;;;;;;;1.20;0.80;;;8.90;99.90;;;;;;5028805;28;20434;-84
2023/04/20 09:24:00;;;;;;;1.10;0.70;;;9.00;99.90;;;;;;5026327;28;21269;-85
2023/04/20 09:26:28;;;;;;;1.30;0.87;;;9.00;99.90;;;;;;5027606;28;20476;-85
2023/04/20 09:28:55;;;;;;;1.10;0.70;;;9.10;99.90;;;;;;5029376;28;20459;-83
2023/04/20 09:31:24;;;;;;;1.30;0.80;;;9.00;99.90;;;;;;5030199;28;20524;-85
2023/04/20 09:33:58;;;;;;;1.00;0.67;;;9.10;99.90;;;;;;5044289;28;20497;-86
2023/04/20 09:36:36;;;;;;;2.70;1.93;;;9.20;99.90;;;;;;5033782;28;20473;-85
2023/04/20 09:39:10;;;;;;;1.63;1.10;;;9.20;99.90;;;;;;5025824;28;20462;-84
2023/04/20 09:41:38;;;;;;;1.30;1.00;;;9.30;99.90;;;;;;5029482;28;20546;-85
2023/04/20 09:44:05;;;;;;;2.03;1.67;;;9.30;99.90;;;;;;5030003;28;20486;-84
2023/04/20 09:46:34;;;;;;;1.80;0.90;;;9.30;99.90;;;;;;5029187;28;20450;-85
2023/04/20 09:49:04;;;;;;;5.30;2.50;;;9.40;99.90;;;;;;5025316;28;20494;-84
2023/04/20 09:51:34;;;;;;;1.43;1.03;;;9.50;99.90;;;;;;5027551;28;20526;-82
2023/04/20 09:54:04;;;;;;;1.03;0.60;;;9.50;99.90;;;;;;5037052;28;20469;-82
2023/04/20 09:56:33;;;;;;;0.90;0.50;;;9.00;99.90;;;;;;5038868;28;20485;-81
2023/04/20 09:59:02;;;;;;;1.10;0.90;;;8.90;99.90;;;;;;5025246;28;20525;-84
2023/04/20 10:01:32;;;;;;;1.60;0.70;;;9.00;99.90;;;;;;5024369;28;20509;-85
2023/04/20 10:04:02;;;;;;;1.10;0.70;;;9.30;99.90;;;;;;5030558;28;20436;-86
2023/04/20 10:06:31;;;;;;;0.97;0.67;;;9.60;99.90;;;;;;5029738;28;20456;-85
2023/04/20 10:09:01;;;;;;;1.17;0.70;;;9.70;99.90;;;;;;5028939;28;20463;-85
2023/04/20 10:11:30;;;;;;;1.07;0.70;;;9.80;99.90;;;;;;5030000;28;20452;-83
2023/04/20 10:14:00;;;;;;;1.00;0.60;;;10.00;99.90;;;;;;5029217;28;20495;-82
2023/04/20 10:16:27;;;;;;;0.90;0.50;;;9.90;99.90;;;;;;5029544;28;20495;-81
2023/04/20 10:19:00;;;;;;;1.10;0.53;;;9.90;99.90;;;;;;5029648;28;20521;-81
2023/04/20 10:21:28;;;;;;;0.93;0.67;;;9.90;99.90;;;;;;5030207;28;20814;-82
2023/04/20 10:23:57;;;;;;;1.03;0.60;;;10.00;99.90;;;;;;5030556;28;20475;-81
2023/04/20 10:26:35;;;;;;;1.10;0.87;;;10.10;99.90;;;;;;5028561;28;20842;-82
2023/04/20 10:29:05;;;;;;;1.30;0.80;;;10.10;99.90;;;;;;5029645;28;20529;-82
2023/04/20 10:31:39;;;;;;;1.10;0.90;;;10.20;99.90;;;;;;5029632;28;20454;-82
2023/04/20 10:34:07;;;;;;;1.10;0.90;;;10.30;99.90;;;;;;5029423;28;20542;-83
2023/04/20 10:36:36;;;;;;;1.30;0.80;;;10.30;99.90;;;;;;5028155;28;20458;-81
2023/04/20 10:39:15;;;;;;;1.23;1.00;;;10.30;99.90;;;;;;5027120;28;20525;-83
2023/04/20 10:41:57;;;;;;;1.77;0.83;;;10.30;99.90;;;;;;5028105;28;20441;-82
2023/04/20 10:44:25;;;;;;;1.13;0.80;;;10.30;99.90;;;;;;5027794;28;20447;-81
2023/04/20 10:46:54;;;;;;;1.80;1.20;;;10.20;99.90;;;;;;5028103;28;20452;-83
2023/04/20 10:49:27;;;;;;;1.10;0.90;;;10.10;99.90;;;;;;5029488;28;21064;-83
2023/04/20 10:51:55;;;;;;;1.70;1.30;;;10.00;99.90;;;;;;5030920;28;20462;-86
2023/04/20 10:54:23;;;;;;;1.50;1.03;;;10.20;99.90;;;;;;5029707;28;20483;-86
2023/04/20 10:56:51;;;;;;;1.37;1.10;;;10.20;99.90;;;;;;5029355;28;20466;-86
2023/04/20 10:59:21;;;;;;;1.37;1.07;;;10.20;99.90;;;;;;5026933;28;20900;-86
2023/04/20 11:01:50;;;;;;;1.00;0.80;;;10.20;99.90;;;;;;5030262;28;20514;-83
2023/04/20 11:04:18;;;;;;;1.30;1.00;;;10.50;99.90;;;;;;5027188;28;20552;-83
2023/04/20 11:06:46;;;;;;;1.30;0.90;;;10.50;99.90;;;;;;5028757;28;20507;-82
2023/04/20 11:09:18;;;;;;;1.10;0.80;;;10.60;99.90;;;;;;5028442;28;20479;-82
2023/04/20 11:11:46;;;;;;;1.47;1.10;;;10.70;99.90;;;;;;5028381;28;20444;-83
2023/04/20 11:14:13;;;;;;;1.80;1.50;;;10.70;99.90;;;;;;5029699;28;20470;-83
2023/04/20 11:16:40;;;;;;;2.37;1.20;;;10.60;99.90;;;;;;5029881;28;20536;-83
2023/04/20 11:19:09;;;;;;;1.43;1.00;;;10.40;99.90;;;;;;5029166;28;20478;-87
2023/04/20 11:21:37;;;;;;;1.07;0.73;;;10.50;99.90;;;;;;5028889;28;20836;-83
2023/04/20 11:24:06;;;;;;;1.70;1.40;;;10.50;99.90;;;;;;5030730;28;20458;-83
2023/04/20 11:26:37;;;;;;;1.60;1.50;;;10.40;99.90;;;;;;5022738;28;20455;-85
2023/04/20 11:29:04;;;;;;;1.80;1.20;;;10.40;99.90;;;;;;5032417;28;20544;-83
2023/04/20 11:31:31;;;;;;;1.47;1.10;;;10.60;99.90;;;;;;5040256;28;20470;-83
2023/04/20 11:33:58;;;;;;;2.73;1.30;;;10.50;99.90;;;;;;5037187;28;20448;-88
2023/04/20 11:36:28;;;;;;;1.53;1.27;;;10.40;99.90;;;;;;5029277;28;20569;-86
2023/04/20 11:38:55;;;;;;;1.83;1.30;;;10.40;99.90;;;;;;5026080;28;20999;-86
2023/04/20 11:41:23;;;;;;;1.30;1.00;;;10.40;99.90;;;;;;5029488;28;20443;-84
2023/04/20 11:43:50;;;;;;;2.13;1.93;;;10.30;99.90;;;;;;5029188;28;20903;-84
2023/04/20 11:46:18;;;;;;;1.63;1.40;;;10.50;99.90;;;;;;5029033;28;20528;-83
2023/04/20 11:48:46;;;;;;;1.70;1.60;;;10.60;99.90;;;;;;5029550;28;20471;-84
2023/04/20 11:51:14;;;;;;;1.60;1.50;;;10.80;99.90;;;;;;5027004;28;20925;-83
2023/04/20 11:53:43;;;;;;;1.50;1.20;;;10.80;99.90;;;;;;5029185;28;20518;-84
2023/04/20 11:56:10;;;;;;;11.60;9.90;;;10.90;99.90;;;;;;5026579;28;20483;-84
2023/04/20 11:58:37;;;;;;;2.10;1.63;;;11.00;99.90;;;;;;5028394;28;21045;-84
2023/04/20 12:01:05;;;;;;;1.60;1.47;;;11.10;99.90;;;;;;5029382;28;20523;-84
2023/04/20 12:03:33;;;;;;;2.00;1.80;;;11.00;99.90;;;;;;5023823;28;21031;-85
2023/04/20 12:06:01;;;;;;;1.73;1.33;;;11.10;99.90;;;;;;5029932;28;20459;-85
2023/04/20 12:08:30;;;;;;;2.10;1.90;;;10.90;99.90;;;;;;5029806;28;20475;-84
2023/04/20 12:10:59;;;;;;;2.47;2.03;;;10.90;99.90;;;;;;5029447;28;20448;-84
2023/04/20 12:13:27;;;;;;;2.80;2.40;;;11.00;99.90;;;;;;5029559;28;20993;-87
2023/04/20 12:15:54;;;;;;;1.80;1.50;;;11.30;99.90;;;;;;5028300;28;20514;-85
2023/04/20 12:18:22;;;;;;;3.37;2.07;;;11.20;99.90;;;;;;5028371;28;20476;-85
2023/04/20 12:20:50;;;;;;;2.63;1.90;;;11.20;99.90;;;;;;5029086;28;20458;-83
2023/04/20 12:23:17;;;;;;;2.37;1.87;;;11.40;99.90;;;;;;5028987;28;20695;-85
2023/04/20 12:25:44;;;;;;;2.30;1.97;;;11.40;99.90;;;;;;5030368;28;20480;-85
2023/04/20 12:28:13;;;;;;;3.23;2.50;;;11.50;99.90;;;;;;5032752;28;20484;-86
2023/04/20 12:30:40;;;;;;;1.87;1.60;;;11.60;99.90;;;;;;5032931;28;21004;-86
2023/04/20 12:33:07;;;;;;;2.03;1.47;;;11.40;99.90;;;;;;5032326;28;20895;-85
2023/04/20 12:35:34;;;;;;;2.90;2.23;;;11.60;99.90;;;;;;5032962;28;20830;-85
2023/04/20 12:38:03;;;;;;;2.37;2.17;;;11.60;99.90;;;;;;5026633;28;20451;-85
2023/04/20 12:40:32;;;;;;;1.70;1.57;;;11.50;99.90;;;;;;5033290;28;20456;-84
2023/04/20 12:43:00;;;;;;;2.10;1.90;;;11.50;99.90;;;;;;5033468;28;20453;-84
2023/04/20 12:45:29;;;;;;;1.70;1.60;;;11.50;99.90;;;;;;5033655;28;20931;-85
2023/04/20 12:47:57;;;;;;;2.43;1.90;;;11.30;99.90;;;;;;5034617;28;20429;-84
2023/04/20 12:50:24;;;;;;;1.90;1.70;;;11.30;99.90;;;;;;5032810;28;20463;-83
2023/04/20 12:52:51;;;;;;;1.73;1.50;;;11.40;99.90;;;;;;5033839;28;20463;-85
2023/04/20 12:55:19;;;;;;;1.97;1.77;;;11.40;99.90;;;;;;5032171;28;20506;-84
2023/04/20 12:57:46;;;;;;;3.03;2.17;;;11.40;99.90;;;;;;5031154;28;20945;-85